createdAt,value
2019-04-30T00:01:48.556Z,45.60
2019-04-30T00:04:17.092Z,45.40
2019-04-30T00:06:45.349Z,45.30
2019-04-30T00:09:17.089Z,45.20
2019-04-30T00:11:39.004Z,45.40
2019-04-30T00:14:06.211Z,45.10
2019-04-30T00:16:38.372Z,45.30
2019-04-30T00:19:00.992Z,45.20
2019-04-30T00:21:27.615Z,45.20
2019-04-30T00:23:56.087Z,45.50
2019-04-30T00:26:21.900Z,45.30
2019-04-30T00:28:49.002Z,45.30
2019-04-30T00:31:17.428Z,45.30
2019-04-30T00:33:44.937Z,45.40
2019-04-30T00:36:10.659Z,45.10
2019-04-30T00:38:38.003Z,45.20
2019-04-30T00:41:06.868Z,45.10
2019-04-30T00:43:32.315Z,45.10
2019-04-30T00:45:59.396Z,45.20
2019-04-30T00:48:27.886Z,45.20
2019-04-30T00:51:00.428Z,45.30
2019-04-30T00:53:27.584Z,45.20
2019-04-30T00:55:57.199Z,45.10
2019-04-30T00:58:28.980Z,45.20
2019-04-30T01:00:59.856Z,45.00
2019-04-30T01:03:25.579Z,45.20
2019-04-30T01:05:51.493Z,45.10
2019-04-30T01:08:21.075Z,45.20
2019-04-30T01:10:46.101Z,45.00
2019-04-30T01:13:13.008Z,45.10
2019-04-30T01:15:44.078Z,45.30
2019-04-30T01:18:09.223Z,45.00
2019-04-30T01:20:34.419Z,45.10
2019-04-30T01:23:03.157Z,45.10
2019-04-30T01:25:28.881Z,45.10
2019-04-30T01:27:55.747Z,45.10
2019-04-30T01:30:23.004Z,45.30
2019-04-30T01:32:56.417Z,45.10
2019-04-30T01:35:18.969Z,45.20
2019-04-30T01:37:44.312Z,45.10
2019-04-30T01:40:13.872Z,45.00
2019-04-30T01:42:42.834Z,45.00
2019-04-30T01:45:05.723Z,45.00
2019-04-30T01:47:32.864Z,45.10
2019-04-30T01:50:04.565Z,45.00
2019-04-30T01:52:35.220Z,45.20
2019-04-30T01:54:58.986Z,44.90
2019-04-30T01:57:33.748Z,44.90
2019-04-30T02:00:21.493Z,45.10
2019-04-30T02:02:49.533Z,45.10
2019-04-30T02:05:15.863Z,44.90
2019-04-30T02:07:42.978Z,44.90
2019-04-30T02:10:10.050Z,45.10
2019-04-30T02:12:37.116Z,45.20
2019-04-30T02:15:04.258Z,45.10
2019-04-30T02:17:31.359Z,45.00
2019-04-30T02:19:59.289Z,44.80
2019-04-30T02:22:25.723Z,45.20
2019-04-30T02:24:52.819Z,45.00
2019-04-30T02:27:21.635Z,45.00
2019-04-30T02:29:47.179Z,45.10
2019-04-30T02:32:14.363Z,44.90
2019-04-30T02:34:45.824Z,44.90
2019-04-30T02:37:16.096Z,44.80
2019-04-30T02:39:43.239Z,45.00
2019-04-30T02:42:13.338Z,44.70
2019-04-30T02:44:40.547Z,44.90
2019-04-30T02:47:04.747Z,44.80
2019-04-30T02:49:31.828Z,44.80
2019-04-30T02:51:59.590Z,44.80
2019-04-30T02:54:26.466Z,45.00
2019-04-30T02:56:59.605Z,45.00
2019-04-30T02:59:25.426Z,44.80
2019-04-30T03:01:52.550Z,44.90
2019-04-30T03:04:19.865Z,44.60
2019-04-30T03:06:46.759Z,44.70
2019-04-30T03:09:13.881Z,45.00
2019-04-30T03:11:41.183Z,44.90
2019-04-30T03:14:10.266Z,44.60
2019-04-30T03:16:40.514Z,44.70
2019-04-30T03:19:13.177Z,44.60
2019-04-30T03:21:44.539Z,44.60
2019-04-30T03:24:11.622Z,44.80
2019-04-30T03:26:40.040Z,44.60
2019-04-30T03:29:06.023Z,44.60
2019-04-30T03:31:33.186Z,44.80
2019-04-30T03:34:02.107Z,44.60
2019-04-30T03:36:32.170Z,44.80
2019-04-30T03:38:54.586Z,44.60
2019-04-30T03:41:21.748Z,44.70
2019-04-30T03:43:50.373Z,44.60
2019-04-30T03:46:16.117Z,44.80
2019-04-30T03:48:43.214Z,44.50
2019-04-30T03:51:10.746Z,44.40
2019-04-30T03:53:39.743Z,44.50
2019-04-30T03:56:04.723Z,44.50
2019-04-30T03:58:31.779Z,44.40
2019-04-30T04:01:12.173Z,44.40
2019-04-30T04:03:43.958Z,44.40
2019-04-30T04:06:21.258Z,44.70
2019-04-30T04:08:51.660Z,44.40
2019-04-30T04:11:22.785Z,44.40
2019-04-30T04:13:49.960Z,44.60
2019-04-30T04:16:19.457Z,44.40
2019-04-30T04:18:44.375Z,44.40
2019-04-30T04:21:16.750Z,44.40
2019-04-30T04:23:39.896Z,44.30
2019-04-30T04:26:05.820Z,44.50
2019-04-30T04:28:32.907Z,44.40
2019-04-30T04:31:00.318Z,44.50
2019-04-30T04:33:29.437Z,44.40
2019-04-30T04:35:54.367Z,44.40
2019-04-30T04:38:21.504Z,44.60
2019-04-30T04:40:50.212Z,44.30
2019-04-30T04:43:15.746Z,44.50
2019-04-30T04:45:43.809Z,44.40
2019-04-30T04:48:09.958Z,44.40
2019-04-30T04:50:39.788Z,44.20
2019-04-30T04:53:06.204Z,44.50
2019-04-30T04:55:31.352Z,44.60
2019-04-30T04:57:59.850Z,44.40
2019-04-30T05:00:25.690Z,44.30
2019-04-30T05:02:59.301Z,44.40
2019-04-30T05:05:24.300Z,44.30
2019-04-30T05:07:51.488Z,44.40
2019-04-30T05:10:19.242Z,44.50
2019-04-30T05:12:45.787Z,44.00
2019-04-30T05:15:13.086Z,44.40
2019-04-30T05:17:40.183Z,44.10
2019-04-30T05:20:07.297Z,44.10
2019-04-30T05:22:34.431Z,44.40
2019-04-30T05:25:01.807Z,44.20
2019-04-30T05:27:30.329Z,44.10
2019-04-30T05:29:56.036Z,44.20
2019-04-30T05:32:23.156Z,44.10
2019-04-30T05:34:50.298Z,44.30
2019-04-30T05:37:18.690Z,44.30
2019-04-30T05:39:45.602Z,44.40
2019-04-30T05:42:12.730Z,44.10
2019-04-30T05:44:40.511Z,44.00
2019-04-30T05:47:09.299Z,44.20
2019-04-30T05:49:34.831Z,44.00
2019-04-30T05:52:01.964Z,44.20
2019-04-30T05:54:29.299Z,44.10
2019-04-30T05:56:56.387Z,44.30
2019-04-30T05:59:23.544Z,44.20
2019-04-30T06:01:50.839Z,44.30
2019-04-30T06:04:19.397Z,44.10
2019-04-30T06:06:44.944Z,44.10
2019-04-30T06:09:30.488Z,44.00
2019-04-30T06:11:53.909Z,44.10
2019-04-30T06:14:28.728Z,44.00
2019-04-30T06:17:04.368Z,44.00
2019-04-30T06:19:31.476Z,44.40
2019-04-30T06:22:05.810Z,44.40
2019-04-30T06:24:28.047Z,44.10
2019-04-30T06:26:53.011Z,44.20
2019-04-30T06:29:20.285Z,44.10
2019-04-30T06:31:48.607Z,43.90
2019-04-30T06:34:14.507Z,44.00
2019-04-30T06:36:50.976Z,44.00
2019-04-30T06:39:08.749Z,43.90
2019-04-30T06:41:35.882Z,43.90
2019-04-30T06:44:02.977Z,44.10
2019-04-30T06:46:30.123Z,44.10
2019-04-30T06:48:57.186Z,43.90
2019-04-30T06:51:24.281Z,43.90
2019-04-30T06:53:51.482Z,43.80
2019-04-30T06:56:19.004Z,44.80
2019-04-30T06:58:45.719Z,43.80
2019-04-30T07:01:12.815Z,44.10
2019-04-30T07:03:40.048Z,44.00
2019-04-30T07:06:08.422Z,43.80
2019-04-30T07:08:54.809Z,44.00
2019-04-30T07:11:15.870Z,44.10
2019-04-30T07:13:45.991Z,43.80
2019-04-30T07:16:13.105Z,43.80
2019-04-30T07:18:40.227Z,44.00
2019-04-30T07:21:08.739Z,43.90
2019-04-30T07:23:34.458Z,44.10
2019-04-30T07:26:01.623Z,43.80
2019-04-30T07:28:43.216Z,43.70
2019-04-30T07:31:10.667Z,43.70
2019-04-30T07:33:23.183Z,43.90
2019-04-30T07:35:50.391Z,43.70
2019-04-30T07:38:19.292Z,43.80
2019-04-30T07:40:44.714Z,43.70
2019-04-30T07:43:11.900Z,43.90
2019-04-30T07:45:39.736Z,43.70
2019-04-30T07:48:06.231Z,43.60
2019-04-30T07:50:34.062Z,43.70
2019-04-30T07:53:05.869Z,43.90
2019-04-30T07:55:29.516Z,44.00
2019-04-30T07:57:54.778Z,43.80
2019-04-30T08:00:21.882Z,43.80
2019-04-30T08:02:54.540Z,44.00
2019-04-30T08:05:26.407Z,43.70
2019-04-30T08:07:53.698Z,43.70
2019-04-30T08:10:20.770Z,43.70
2019-04-30T08:12:50.458Z,43.70
2019-04-30T08:15:15.065Z,43.70
2019-04-30T08:17:42.195Z,43.80
2019-04-30T08:20:09.359Z,43.80
2019-04-30T08:22:36.567Z,43.70
2019-04-30T08:25:03.849Z,43.80
2019-04-30T08:27:30.952Z,43.60
2019-04-30T08:29:59.239Z,43.70
2019-04-30T08:32:25.269Z,43.60
2019-04-30T08:34:52.501Z,43.50
2019-04-30T08:37:20.226Z,43.60
2019-04-30T08:39:46.716Z,43.60
2019-04-30T08:42:14.644Z,43.70
2019-04-30T08:44:41.807Z,43.60
2019-04-30T08:47:08.934Z,43.70
2019-04-30T08:49:36.545Z,43.80
2019-04-30T08:52:03.362Z,43.70
2019-04-30T08:54:30.500Z,43.60
2019-04-30T08:56:59.364Z,43.70
2019-04-30T08:59:24.789Z,43.60
2019-04-30T09:01:51.885Z,43.70
2019-04-30T09:04:20.112Z,43.60
2019-04-30T09:06:46.163Z,43.50
2019-04-30T09:09:18.821Z,43.60
2019-04-30T09:11:53.098Z,43.60
2019-04-30T09:14:11.223Z,43.40
2019-04-30T09:16:39.283Z,43.60
2019-04-30T09:19:05.571Z,43.60
2019-04-30T09:21:32.763Z,43.60
2019-04-30T09:23:59.863Z,43.50
2019-04-30T09:26:28.908Z,43.40
2019-04-30T09:28:54.100Z,43.40
2019-04-30T09:31:21.191Z,43.50
2019-04-30T09:33:49.257Z,43.30
2019-04-30T09:36:16.414Z,43.40
2019-04-30T09:38:43.475Z,43.50
2019-04-30T09:41:10.622Z,43.30
2019-04-30T09:43:37.803Z,43.30
2019-04-30T09:46:15.458Z,43.30
2019-04-30T09:48:31.981Z,43.40
2019-04-30T09:51:00.828Z,43.30
2019-04-30T09:53:26.178Z,43.40
2019-04-30T09:55:53.327Z,43.50
2019-04-30T09:58:21.253Z,43.30
2019-04-30T10:00:49.836Z,43.40
2019-04-30T10:03:15.378Z,43.30
2019-04-30T10:05:41.875Z,43.40
2019-04-30T10:08:08.947Z,43.10
2019-04-30T10:10:40.755Z,43.30
2019-04-30T10:13:07.855Z,43.20
2019-04-30T10:15:39.615Z,43.30
2019-04-30T10:18:07.002Z,43.20
2019-04-30T10:20:38.310Z,43.20
2019-04-30T10:23:05.490Z,43.40
2019-04-30T10:25:32.534Z,43.30
2019-04-30T10:27:59.834Z,43.40
2019-04-30T10:30:29.115Z,43.30
2019-04-30T10:32:54.388Z,43.30
2019-04-30T10:35:21.546Z,43.20
2019-04-30T10:37:48.652Z,43.30
2019-04-30T10:40:15.743Z,43.40
2019-04-30T10:42:42.957Z,43.40
2019-04-30T10:45:10.170Z,43.30
2019-04-30T10:47:38.908Z,43.40
2019-04-30T10:50:05.048Z,43.40
2019-04-30T10:52:32.250Z,43.20
2019-04-30T10:54:59.606Z,43.20
2019-04-30T10:57:28.386Z,43.30
2019-04-30T10:59:53.652Z,43.50
2019-04-30T11:02:20.808Z,43.30
2019-04-30T11:04:47.930Z,43.50
2019-04-30T11:07:15.110Z,43.40
2019-04-30T11:09:42.172Z,43.40
2019-04-30T11:12:09.549Z,43.30
2019-04-30T11:14:36.814Z,43.30
2019-04-30T11:17:04.114Z,43.10
2019-04-30T11:19:31.288Z,43.00
2019-04-30T11:21:58.344Z,43.30
2019-04-30T11:24:35.806Z,43.10
2019-04-30T11:26:53.168Z,43.20
2019-04-30T11:29:22.764Z,43.30
2019-04-30T11:31:53.435Z,43.30
2019-04-30T11:34:20.436Z,43.20
2019-04-30T11:36:47.514Z,43.20
2019-04-30T11:39:18.485Z,43.20
2019-04-30T11:41:43.705Z,43.30
2019-04-30T11:44:10.851Z,43.20
2019-04-30T11:47:52.881Z,43.30
2019-04-30T11:50:09.402Z,43.10
2019-04-30T11:52:36.551Z,43.40
2019-04-30T11:55:04.783Z,43.40
2019-04-30T11:57:31.881Z,43.30
2019-04-30T11:59:59.005Z,43.30
2019-04-30T12:02:32.590Z,43.30
2019-04-30T12:04:59.731Z,43.20
2019-04-30T12:07:32.463Z,43.20
2019-04-30T12:10:04.232Z,43.20
2019-04-30T12:12:31.427Z,43.20
2019-04-30T12:15:00.256Z,43.20
2019-04-30T12:17:25.598Z,43.90
2019-04-30T12:19:52.710Z,43.40
2019-04-30T12:22:20.298Z,43.30
2019-04-30T12:24:48.743Z,43.50
2019-04-30T12:27:14.112Z,43.50
2019-04-30T12:29:41.228Z,43.30
2019-04-30T12:32:08.487Z,43.10
2019-04-30T12:34:35.630Z,43.20
2019-04-30T12:37:02.727Z,43.20
2019-04-30T12:39:30.159Z,43.20
2019-04-30T12:41:58.866Z,43.20
2019-04-30T12:44:24.074Z,43.30
2019-04-30T12:46:51.261Z,43.20
2019-04-30T12:49:19.021Z,43.30
2019-04-30T12:52:05.137Z,43.40
2019-04-30T12:54:36.607Z,43.30
2019-04-30T12:57:10.842Z,43.40
2019-04-30T12:59:35.912Z,43.40
2019-04-30T13:02:03.023Z,43.40
2019-04-30T13:04:30.183Z,43.30
2019-04-30T13:07:01.572Z,43.90
2019-04-30T13:09:24.758Z,43.40
2019-04-30T13:11:52.115Z,43.40
2019-04-30T13:14:20.152Z,43.40
2019-04-30T13:16:46.327Z,43.30
2019-04-30T13:19:13.469Z,43.40
2019-04-30T13:21:40.644Z,43.50
2019-04-30T13:24:07.836Z,43.40
2019-04-30T13:26:34.985Z,43.50
2019-04-30T13:29:05.566Z,43.50
2019-04-30T13:31:32.722Z,43.50
2019-04-30T13:34:04.507Z,43.50
2019-04-30T13:36:31.666Z,43.50
2019-04-30T13:39:04.344Z,43.50
2019-04-30T13:41:39.090Z,43.50
2019-04-30T13:44:09.749Z,43.40
2019-04-30T13:46:36.502Z,43.40
2019-04-30T13:49:03.608Z,43.50
2019-04-30T13:51:30.717Z,43.40
2019-04-30T13:53:57.952Z,43.40
2019-04-30T13:56:25.376Z,43.50
2019-04-30T13:58:52.460Z,43.40
2019-04-30T14:01:21.398Z,43.40
2019-04-30T14:03:51.487Z,43.40
2019-04-30T14:06:20.252Z,43.40
2019-04-30T14:08:48.804Z,43.30
2019-04-30T14:11:15.434Z,43.30
2019-04-30T14:13:42.611Z,43.30
2019-04-30T14:16:09.679Z,43.30
2019-04-30T14:18:38.662Z,43.30
2019-04-30T14:21:03.984Z,43.20
2019-04-30T14:23:31.085Z,43.20
2019-04-30T14:26:00.904Z,43.10
2019-04-30T14:28:25.725Z,43.10
2019-04-30T14:30:52.870Z,43.20
2019-04-30T14:33:25.945Z,43.10
2019-04-30T14:35:47.138Z,43.10
2019-04-30T14:38:14.272Z,43.10
2019-04-30T14:40:41.707Z,43.10
2019-04-30T14:43:13.305Z,43.10
2019-04-30T14:45:46.747Z,43.10
2019-04-30T14:48:20.031Z,43.00
2019-04-30T14:50:44.758Z,43.00
2019-04-30T14:53:16.146Z,43.00
2019-04-30T14:55:52.758Z,43.00
2019-04-30T14:58:25.371Z,43.00
2019-04-30T15:00:59.328Z,43.00
2019-04-30T15:03:26.376Z,43.10
2019-04-30T15:05:53.453Z,43.10
2019-04-30T15:08:20.568Z,43.00
2019-04-30T15:10:47.774Z,43.00
2019-04-30T15:13:15.459Z,43.00
2019-04-30T15:15:42.558Z,42.90
2019-04-30T15:18:09.711Z,43.00
2019-04-30T15:20:36.796Z,43.00
2019-04-30T15:23:18.881Z,43.80
2019-04-30T15:25:38.843Z,43.00
2019-04-30T15:28:05.779Z,42.90
2019-04-30T15:30:32.840Z,42.90
2019-04-30T15:33:04.575Z,42.90
2019-04-30T15:35:31.714Z,43.00
2019-04-30T15:37:59.548Z,42.70
2019-04-30T15:40:28.778Z,42.80
2019-04-30T15:42:54.367Z,42.70
2019-04-30T15:45:21.447Z,42.90
2019-04-30T15:47:48.673Z,42.80
2019-04-30T15:50:15.663Z,42.40
2019-04-30T15:52:42.708Z,42.50
2019-04-30T15:55:12.193Z,42.40
2019-04-30T15:57:41.617Z,42.20
2019-04-30T16:00:08.704Z,42.80
2019-04-30T16:02:53.185Z,42.20
2019-04-30T16:05:14.395Z,42.00
2019-04-30T16:07:49.213Z,42.30
2019-04-30T16:10:21.716Z,42.10
2019-04-30T16:12:54.642Z,42.20
2019-04-30T16:15:22.216Z,42.00
2019-04-30T16:17:49.730Z,42.10
2019-04-30T16:20:16.801Z,42.20
2019-04-30T16:22:43.924Z,42.10
2019-04-30T16:25:11.038Z,43.30
2019-04-30T16:27:38.587Z,42.50
2019-04-30T16:30:05.710Z,42.50
2019-04-30T16:32:32.857Z,42.30
2019-04-30T16:34:59.971Z,42.20
2019-04-30T16:37:28.733Z,42.60
2019-04-30T16:39:54.324Z,42.70
2019-04-30T16:42:21.439Z,42.40
2019-04-30T16:44:48.576Z,42.40
2019-04-30T16:47:17.026Z,42.70
2019-04-30T16:49:43.012Z,42.50
2019-04-30T16:52:10.147Z,42.60
2019-04-30T16:54:39.336Z,42.80
2019-04-30T16:57:06.928Z,42.70
2019-04-30T16:59:35.332Z,42.70
2019-04-30T17:02:02.660Z,42.70
2019-04-30T17:04:34.208Z,42.70
2019-04-30T17:07:08.762Z,42.70
2019-04-30T17:09:37.986Z,42.60
2019-04-30T17:12:11.115Z,42.50
2019-04-30T17:14:38.873Z,42.60
2019-04-30T17:17:05.416Z,42.50
2019-04-30T17:19:32.529Z,42.70
2019-04-30T17:21:59.667Z,42.40
2019-04-30T17:24:26.795Z,42.60
2019-04-30T17:26:54.583Z,42.50
2019-04-30T17:29:21.727Z,42.40
2019-04-30T17:31:48.832Z,42.60
2019-04-30T17:34:15.982Z,42.30
2019-04-30T17:36:43.155Z,42.50
2019-04-30T17:39:11.980Z,42.20
2019-04-30T17:41:39.147Z,42.40
2019-04-30T17:44:06.271Z,42.00
2019-04-30T17:46:33.416Z,42.20
2019-04-30T17:49:00.563Z,42.50
2019-04-30T17:51:27.686Z,42.40
2019-04-30T17:54:00.591Z,42.10
2019-04-30T17:56:27.663Z,41.80
2019-04-30T17:58:54.797Z,42.50
2019-04-30T18:01:21.986Z,43.10
2019-04-30T18:03:49.126Z,43.40
2019-04-30T18:06:16.255Z,40.30
2019-04-30T18:08:43.306Z,41.10
2019-04-30T18:11:10.410Z,41.80
2019-04-30T18:13:37.571Z,41.90
2019-04-30T18:16:04.703Z,42.40
2019-04-30T18:18:39.387Z,41.90
2019-04-30T18:21:12.017Z,42.20
2019-04-30T18:24:49.312Z,42.30
2019-04-30T18:27:21.260Z,42.30
2019-04-30T18:29:47.111Z,42.40
2019-04-30T18:32:14.523Z,42.30
2019-04-30T18:34:41.616Z,42.40
2019-04-30T18:37:09.048Z,42.50
2019-04-30T18:39:35.870Z,42.50
2019-04-30T18:42:03.008Z,42.40
2019-04-30T18:44:30.107Z,42.40
2019-04-30T18:46:58.956Z,42.40
2019-04-30T18:49:24.400Z,42.40
2019-04-30T18:51:51.505Z,42.50
2019-04-30T18:54:20.894Z,42.40
2019-04-30T18:56:45.788Z,42.50
2019-04-30T18:59:12.851Z,42.50
2019-04-30T19:01:40.006Z,42.50
2019-04-30T19:04:09.199Z,42.30
2019-04-30T19:06:34.289Z,42.50
2019-04-30T19:09:07.188Z,42.50
2019-04-30T19:11:39.468Z,42.50
2019-04-30T19:14:11.185Z,42.50
2019-04-30T19:16:43.730Z,42.50
2019-04-30T19:19:14.663Z,42.50
2019-04-30T19:21:41.815Z,42.60
2019-04-30T19:24:08.935Z,42.40
2019-04-30T19:26:36.071Z,42.50
2019-04-30T19:29:03.174Z,42.50
2019-04-30T19:31:30.413Z,42.60
2019-04-30T19:33:58.882Z,42.60
2019-04-30T19:36:35.044Z,42.50
2019-04-30T19:38:51.881Z,42.50
2019-04-30T19:41:19.044Z,42.50
2019-04-30T19:43:46.227Z,42.50
2019-04-30T19:46:13.296Z,42.60
2019-04-30T19:48:40.557Z,42.60
2019-04-30T19:51:08.866Z,42.60
2019-04-30T19:53:34.762Z,42.70
2019-04-30T19:56:01.941Z,42.60
2019-04-30T19:58:44.590Z,42.70
2019-04-30T20:00:56.265Z,42.70
2019-04-30T20:03:23.463Z,42.70
2019-04-30T20:05:50.616Z,42.70
2019-04-30T20:08:19.804Z,42.80
2019-04-30T20:10:44.965Z,42.80
2019-04-30T20:13:12.051Z,42.90
2019-04-30T20:15:39.294Z,42.70
2019-04-30T20:18:06.242Z,42.80
2019-04-30T20:20:33.391Z,42.80
2019-04-30T20:23:00.494Z,42.80
2019-04-30T20:25:27.546Z,42.70
2019-04-30T20:27:54.606Z,42.80
2019-04-30T20:30:21.731Z,42.90
2019-04-30T20:32:49.055Z,42.80
2019-04-30T20:35:15.872Z,42.70
2019-04-30T20:37:49.306Z,42.70
2019-04-30T20:40:16.056Z,42.70
2019-04-30T20:42:43.273Z,42.70
2019-04-30T20:45:10.350Z,42.80
2019-04-30T20:47:39.307Z,42.70
2019-04-30T20:50:04.622Z,42.60
2019-04-30T20:52:32.376Z,42.70
2019-04-30T20:54:59.056Z,42.80
2019-04-30T20:57:26.123Z,42.80
2019-04-30T20:59:53.246Z,42.70
2019-04-30T21:02:20.590Z,42.90
2019-04-30T21:04:47.590Z,42.70
2019-04-30T21:07:14.715Z,42.70
2019-04-30T21:09:41.863Z,42.70
2019-04-30T21:12:09.058Z,42.70
2019-04-30T21:14:36.290Z,42.50
2019-04-30T21:17:03.381Z,42.60
2019-04-30T21:19:30.498Z,42.80
2019-04-30T21:21:59.483Z,42.60
2019-04-30T21:24:24.807Z,42.60
2019-04-30T21:26:51.947Z,42.60
2019-04-30T21:29:19.073Z,42.70
2019-04-30T21:31:54.737Z,42.50
2019-04-30T21:34:29.347Z,42.50
2019-04-30T21:36:54.646Z,42.50
2019-04-30T21:39:21.830Z,42.50
2019-04-30T21:41:49.483Z,42.50
2019-04-30T21:44:15.990Z,42.50
2019-04-30T21:46:43.179Z,42.60
2019-04-30T21:49:10.258Z,42.60
2019-04-30T21:51:39.983Z,42.50
2019-04-30T21:54:04.474Z,42.60
2019-04-30T21:56:31.614Z,42.40
2019-04-30T21:58:58.743Z,42.50
2019-04-30T22:01:25.901Z,42.40
2019-04-30T22:03:53.000Z,42.40
2019-04-30T22:06:20.099Z,42.50
2019-04-30T22:08:48.572Z,42.50
2019-04-30T22:11:14.350Z,42.60
2019-04-30T22:13:43.167Z,42.40
2019-04-30T22:16:08.591Z,42.40
2019-04-30T22:18:35.694Z,42.30
2019-04-30T22:21:02.782Z,42.40
2019-04-30T22:23:29.847Z,42.40
2019-04-30T22:25:56.943Z,42.50
2019-04-30T22:28:24.116Z,42.40
2019-04-30T22:30:51.244Z,42.40
2019-04-30T22:33:19.361Z,42.50
2019-04-30T22:35:52.094Z,42.40
2019-04-30T22:38:21.417Z,42.50
2019-04-30T22:40:48.885Z,42.50
2019-04-30T22:43:15.648Z,42.50
2019-04-30T22:45:47.021Z,42.60
2019-04-30T22:48:14.135Z,42.50
2019-04-30T22:50:41.244Z,42.40
2019-04-30T22:53:08.936Z,42.40
2019-04-30T22:55:35.975Z,42.40
2019-04-30T22:58:03.243Z,42.50
2019-04-30T23:00:35.499Z,42.50
2019-04-30T23:03:05.130Z,42.40
2019-04-30T23:05:32.190Z,42.50
2019-04-30T23:07:59.280Z,42.50
2019-04-30T23:10:26.381Z,42.50
2019-04-30T23:12:53.606Z,42.60
2019-04-30T23:15:21.018Z,42.60
2019-04-30T23:17:48.155Z,42.50
2019-04-30T23:20:15.207Z,42.50
2019-04-30T23:22:42.332Z,42.50
2019-04-30T23:25:09.430Z,42.50
2019-04-30T23:27:36.560Z,42.50
2019-04-30T23:30:04.095Z,42.50
2019-04-30T23:32:31.144Z,42.60
2019-04-30T23:34:58.235Z,42.50
2019-04-30T23:37:25.351Z,42.50
2019-04-30T23:39:52.558Z,42.60
2019-04-30T23:42:19.551Z,42.80
2019-04-30T23:44:46.707Z,42.70
2019-04-30T23:47:13.777Z,42.70
2019-04-30T23:49:40.959Z,42.70
2019-04-30T23:52:08.056Z,42.80
2019-04-30T23:54:35.122Z,42.90
2019-04-30T23:57:02.355Z,42.90
2019-04-30T23:59:29.551Z,42.90
